Novice, Texas
Current Conditions -  °F | °C
As of 2:55 PM on Friday 19 Dec 2014 (Local Time) from KCOM Reporting Station
Overcast Overcast  
Wind Chill: 51°   Ceiling: 2200
Heat Index: 51°   Visibility: 10mi
Dew Point: 45°   Wind: 9mph
Humidity: 81%   Direction: 340°NNW
Pressure: 30.14"   Gusts: NA
Location:  31.99°N, 99.62°W
Report Text: KCOM 192055Z AUTO 34008KT 10SM SCT015 OVC022 10/07 A3014 RMK AO2 T01040072
Loading
Personal Weather Stations






























Interactive Weather Map New forecast layout! Learn more

10-Day Weather Forecast

Advertisements
Track Severe Weather on mobile